sensor_id;sensor_type;location;lat;lon;timestamp;P1;durP1;ratioP1;P2;durP2;ratioP2
20012;SDS011;10167;42.852;23.042;2023-04-03T00:00:44;2.50;;;0.80;;
20012;SDS011;10167;42.852;23.042;2023-04-03T00:03:13;0.20;;;0.20;;
20012;SDS011;10167;42.852;23.042;2023-04-03T00:05:43;0.73;;;0.73;;
20012;SDS011;10167;42.852;23.042;2023-04-03T00:08:12;2.40;;;1.08;;
20012;SDS011;10167;42.852;23.042;2023-04-03T00:10:41;0.90;;;0.90;;
20012;SDS011;10167;42.852;23.042;2023-04-03T00:13:10;0.15;;;0.15;;
20012;SDS011;10167;42.852;23.042;2023-04-03T00:15:41;0.10;;;0.10;;
20012;SDS011;10167;42.852;23.042;2023-04-03T00:18:10;1.55;;;0.85;;
20012;SDS011;10167;42.852;23.042;2023-04-03T00:20:40;0.10;;;0.10;;
20012;SDS011;10167;42.852;23.042;2023-04-03T00:23:09;0.40;;;0.30;;
20012;SDS011;10167;42.852;23.042;2023-04-03T00:25:39;0.40;;;0.40;;
20012;SDS011;10167;42.852;23.042;2023-04-03T00:28:08;0.30;;;0.30;;
20012;SDS011;10167;42.852;23.042;2023-04-03T00:30:38;3.58;;;0.45;;
20012;SDS011;10167;42.852;23.042;2023-04-03T00:33:10;0.45;;;0.45;;
20012;SDS011;10167;42.852;23.042;2023-04-03T00:35:41;0.52;;;0.52;;
20012;SDS011;10167;42.852;23.042;2023-04-03T00:38:12;0.55;;;0.55;;
20012;SDS011;10167;42.852;23.042;2023-04-03T00:40:42;0.20;;;0.20;;
20012;SDS011;10167;42.852;23.042;2023-04-03T00:43:13;0.40;;;0.40;;
20012;SDS011;10167;42.852;23.042;2023-04-03T00:45:45;0.83;;;0.60;;
20012;SDS011;10167;42.852;23.042;2023-04-03T00:48:18;1.02;;;0.55;;
20012;SDS011;10167;42.852;23.042;2023-04-03T00:50:50;0.17;;;0.17;;
20012;SDS011;10167;42.852;23.042;2023-04-03T00:53:21;0.93;;;0.93;;
20012;SDS011;10167;42.852;23.042;2023-04-03T00:55:54;0.80;;;0.80;;
20012;SDS011;10167;42.852;23.042;2023-04-03T00:58:26;0.13;;;0.13;;
20012;SDS011;10167;42.852;23.042;2023-04-03T01:01:03;0.20;;;0.20;;
20012;SDS011;10167;42.852;23.042;2023-04-03T01:03:38;0.40;;;0.40;;
20012;SDS011;10167;42.852;23.042;2023-04-03T01:06:07;0.30;;;0.30;;
20012;SDS011;10167;42.852;23.042;2023-04-03T01:08:37;0.20;;;0.20;;
20012;SDS011;10167;42.852;23.042;2023-04-03T01:11:06;0.28;;;0.28;;
20012;SDS011;10167;42.852;23.042;2023-04-03T01:13:36;0.20;;;0.20;;
20012;SDS011;10167;42.852;23.042;2023-04-03T01:16:06;0.20;;;0.20;;
20012;SDS011;10167;42.852;23.042;2023-04-03T01:18:38;0.20;;;0.20;;
20012;SDS011;10167;42.852;23.042;2023-04-03T01:21:24;5.95;;;1.90;;
20012;SDS011;10167;42.852;23.042;2023-04-03T01:24:33;0.17;;;0.17;;
20012;SDS011;10167;42.852;23.042;2023-04-03T01:27:06;0.20;;;0.20;;
20012;SDS011;10167;42.852;23.042;2023-04-03T01:29:39;2.55;;;0.63;;
20012;SDS011;10167;42.852;23.042;2023-04-03T01:32:12;0.40;;;0.30;;
20012;SDS011;10167;42.852;23.042;2023-04-03T01:34:41;0.60;;;0.60;;
20012;SDS011;10167;42.852;23.042;2023-04-03T01:37:11;1.95;;;0.63;;
20012;SDS011;10167;42.852;23.042;2023-04-03T01:39:40;0.30;;;0.30;;
20012;SDS011;10167;42.852;23.042;2023-04-03T01:42:09;1.20;;;0.85;;
20012;SDS011;10167;42.852;23.042;2023-04-03T01:44:42;1.10;;;1.10;;
20012;SDS011;10167;42.852;23.042;2023-04-03T01:47:13;0.10;;;0.10;;
20012;SDS011;10167;42.852;23.042;2023-04-03T01:49:42;0.10;;;0.10;;
20012;SDS011;10167;42.852;23.042;2023-04-03T01:52:12;0.60;;;0.55;;
20012;SDS011;10167;42.852;23.042;2023-04-03T01:54:41;0.15;;;0.15;;
20012;SDS011;10167;42.852;23.042;2023-04-03T01:57:11;0.40;;;0.40;;
20012;SDS011;10167;42.852;23.042;2023-04-03T01:59:41;0.20;;;0.20;;
20012;SDS011;10167;42.852;23.042;2023-04-03T02:02:10;0.35;;;0.30;;
20012;SDS011;10167;42.852;23.042;2023-04-03T02:04:41;0.10;;;0.10;;
20012;SDS011;10167;42.852;23.042;2023-04-03T02:07:10;0.10;;;0.10;;
20012;SDS011;10167;42.852;23.042;2023-04-03T02:09:40;0.17;;;0.17;;
20012;SDS011;10167;42.852;23.042;2023-04-03T02:12:09;0.30;;;0.30;;
20012;SDS011;10167;42.852;23.042;2023-04-03T02:14:38;0.65;;;0.65;;
20012;SDS011;10167;42.852;23.042;2023-04-03T02:17:11;0.20;;;0.20;;
20012;SDS011;10167;42.852;23.042;2023-04-03T02:19:42;3.70;;;1.67;;
20012;SDS011;10167;42.852;23.042;2023-04-03T02:22:12;2.17;;;1.65;;
20012;SDS011;10167;42.852;23.042;2023-04-03T02:24:41;1.92;;;1.77;;
20012;SDS011;10167;42.852;23.042;2023-04-03T02:27:10;5.22;;;3.50;;
20012;SDS011;10167;42.852;23.042;2023-04-03T02:29:39;3.10;;;2.80;;
20012;SDS011;10167;42.852;23.042;2023-04-03T02:32:08;3.30;;;2.55;;
20012;SDS011;10167;42.852;23.042;2023-04-03T02:34:39;1.20;;;0.95;;
20012;SDS011;10167;42.852;23.042;2023-04-03T02:37:10;0.82;;;0.82;;
20012;SDS011;10167;42.852;23.042;2023-04-03T02:39:41;0.60;;;0.43;;
20012;SDS011;10167;42.852;23.042;2023-04-03T02:42:10;0.65;;;0.45;;
20012;SDS011;10167;42.852;23.042;2023-04-03T02:44:39;0.50;;;0.50;;
20012;SDS011;10167;42.852;23.042;2023-04-03T02:47:09;0.20;;;0.20;;
20012;SDS011;10167;42.852;23.042;2023-04-03T02:49:40;0.52;;;0.52;;
20012;SDS011;10167;42.852;23.042;2023-04-03T02:52:16;1.00;;;0.93;;
20012;SDS011;10167;42.852;23.042;2023-04-03T02:54:47;0.20;;;0.20;;
20012;SDS011;10167;42.852;23.042;2023-04-03T02:57:17;0.20;;;0.20;;
20012;SDS011;10167;42.852;23.042;2023-04-03T02:59:47;0.52;;;0.52;;
20012;SDS011;10167;42.852;23.042;2023-04-03T03:02:16;0.32;;;0.32;;
20012;SDS011;10167;42.852;23.042;2023-04-03T03:04:47;0.13;;;0.13;;
20012;SDS011;10167;42.852;23.042;2023-04-03T03:07:16;0.10;;;0.10;;
20012;SDS011;10167;42.852;23.042;2023-04-03T03:09:45;0.20;;;0.20;;
20012;SDS011;10167;42.852;23.042;2023-04-03T03:12:14;0.20;;;0.20;;
20012;SDS011;10167;42.852;23.042;2023-04-03T03:14:49;0.30;;;0.30;;
20012;SDS011;10167;42.852;23.042;2023-04-03T03:17:18;0.13;;;0.13;;
20012;SDS011;10167;42.852;23.042;2023-04-03T03:19:49;0.10;;;0.10;;
20012;SDS011;10167;42.852;23.042;2023-04-03T03:22:18;1.27;;;0.47;;
20012;SDS011;10167;42.852;23.042;2023-04-03T03:24:48;0.52;;;0.52;;
20012;SDS011;10167;42.852;23.042;2023-04-03T03:27:17;0.80;;;0.80;;
20012;SDS011;10167;42.852;23.042;2023-04-03T03:29:46;0.28;;;0.28;;
20012;SDS011;10167;42.852;23.042;2023-04-03T03:32:16;0.60;;;0.60;;
20012;SDS011;10167;42.852;23.042;2023-04-03T03:34:45;0.50;;;0.50;;
20012;SDS011;10167;42.852;23.042;2023-04-03T03:37:16;5.28;;;0.77;;
20012;SDS011;10167;42.852;23.042;2023-04-03T03:39:45;4.55;;;1.08;;
20012;SDS011;10167;42.852;23.042;2023-04-03T03:42:17;0.80;;;0.80;;
20012;SDS011;10167;42.852;23.042;2023-04-03T03:44:46;0.25;;;0.25;;
20012;SDS011;10167;42.852;23.042;2023-04-03T03:47:16;3.20;;;0.45;;
20012;SDS011;10167;42.852;23.042;2023-04-03T03:49:45;0.47;;;0.47;;
20012;SDS011;10167;42.852;23.042;2023-04-03T03:52:17;0.20;;;0.20;;
20012;SDS011;10167;42.852;23.042;2023-04-03T03:54:46;0.80;;;0.80;;
20012;SDS011;10167;42.852;23.042;2023-04-03T03:57:16;0.10;;;0.10;;
20012;SDS011;10167;42.852;23.042;2023-04-03T03:59:45;0.10;;;0.10;;
20012;SDS011;10167;42.852;23.042;2023-04-03T04:02:17;0.80;;;0.80;;
20012;SDS011;10167;42.852;23.042;2023-04-03T04:04:48;2.78;;;1.08;;
20012;SDS011;10167;42.852;23.042;2023-04-03T04:07:18;0.45;;;0.45;;
20012;SDS011;10167;42.852;23.042;2023-04-03T04:09:48;0.30;;;0.30;;
20012;SDS011;10167;42.852;23.042;2023-04-03T04:12:17;0.30;;;0.30;;
20012;SDS011;10167;42.852;23.042;2023-04-03T04:14:47;2.33;;;1.15;;
20012;SDS011;10167;42.852;23.042;2023-04-03T04:17:16;0.85;;;0.85;;
20012;SDS011;10167;42.852;23.042;2023-04-03T04:19:46;0.20;;;0.20;;
20012;SDS011;10167;42.852;23.042;2023-04-03T04:22:16;1.50;;;1.40;;
20012;SDS011;10167;42.852;23.042;2023-04-03T04:24:47;1.17;;;0.90;;
20012;SDS011;10167;42.852;23.042;2023-04-03T04:27:16;1.67;;;0.98;;
20012;SDS011;10167;42.852;23.042;2023-04-03T04:29:45;4.72;;;1.33;;
20012;SDS011;10167;42.852;23.042;2023-04-03T04:32:15;0.30;;;0.30;;
20012;SDS011;10167;42.852;23.042;2023-04-03T04:34:45;1.75;;;1.35;;
20012;SDS011;10167;42.852;23.042;2023-04-03T04:37:14;0.80;;;0.73;;
20012;SDS011;10167;42.852;23.042;2023-04-03T04:39:48;0.52;;;0.52;;
20012;SDS011;10167;42.852;23.042;2023-04-03T04:42:18;1.48;;;1.38;;
20012;SDS011;10167;42.852;23.042;2023-04-03T04:44:48;0.68;;;0.68;;
20012;SDS011;10167;42.852;23.042;2023-04-03T04:47:18;2.20;;;1.52;;
20012;SDS011;10167;42.852;23.042;2023-04-03T04:49:47;19.13;;;1.63;;
20012;SDS011;10167;42.852;23.042;2023-04-03T04:52:16;2.17;;;1.02;;
20012;SDS011;10167;42.852;23.042;2023-04-03T04:54:45;1.85;;;0.95;;
20012;SDS011;10167;42.852;23.042;2023-04-03T04:57:16;2.33;;;1.60;;
20012;SDS011;10167;42.852;23.042;2023-04-03T04:59:46;0.98;;;0.98;;
20012;SDS011;10167;42.852;23.042;2023-04-03T05:02:16;1.35;;;1.27;;
20012;SDS011;10167;42.852;23.042;2023-04-03T05:04:45;1.70;;;0.95;;
20012;SDS011;10167;42.852;23.042;2023-04-03T05:07:19;1.50;;;0.60;;
20012;SDS011;10167;42.852;23.042;2023-04-03T05:09:49;1.80;;;1.70;;
20012;SDS011;10167;42.852;23.042;2023-04-03T05:12:19;4.68;;;3.03;;
20012;SDS011;10167;42.852;23.042;2023-04-03T05:14:54;1.88;;;1.77;;
20012;SDS011;10167;42.852;23.042;2023-04-03T05:17:27;4.00;;;2.83;;
20012;SDS011;10167;42.852;23.042;2023-04-03T05:19:58;2.13;;;1.92;;
20012;SDS011;10167;42.852;23.042;2023-04-03T05:22:29;3.35;;;1.30;;
20012;SDS011;10167;42.852;23.042;2023-04-03T05:25:06;4.88;;;1.48;;
20012;SDS011;10167;42.852;23.042;2023-04-03T05:27:38;11.68;;;10.45;;
20012;SDS011;10167;42.852;23.042;2023-04-03T05:30:08;16.23;;;10.38;;
20012;SDS011;10167;42.852;23.042;2023-04-03T05:32:39;6.78;;;5.72;;
20012;SDS011;10167;42.852;23.042;2023-04-03T05:35:17;7.88;;;2.63;;
20012;SDS011;10167;42.852;23.042;2023-04-03T05:37:50;1.48;;;1.42;;
20012;SDS011;10167;42.852;23.042;2023-04-03T05:40:21;0.47;;;0.47;;
20012;SDS011;10167;42.852;23.042;2023-04-03T05:42:53;2.88;;;1.23;;
20012;SDS011;10167;42.852;23.042;2023-04-03T05:45:24;6.22;;;2.28;;
20012;SDS011;10167;42.852;23.042;2023-04-03T05:47:54;1.02;;;0.98;;
20012;SDS011;10167;42.852;23.042;2023-04-03T05:50:23;0.65;;;0.65;;
20012;SDS011;10167;42.852;23.042;2023-04-03T05:52:55;0.73;;;0.73;;
20012;SDS011;10167;42.852;23.042;2023-04-03T05:55:30;4.45;;;2.00;;
20012;SDS011;10167;42.852;23.042;2023-04-03T05:57:59;0.20;;;0.20;;
20012;SDS011;10167;42.852;23.042;2023-04-03T06:00:29;2.42;;;1.38;;
20012;SDS011;10167;42.852;23.042;2023-04-03T06:03:01;0.95;;;0.95;;
20012;SDS011;10167;42.852;23.042;2023-04-03T06:05:32;0.77;;;0.77;;
20012;SDS011;10167;42.852;23.042;2023-04-03T06:08:03;1.85;;;0.82;;
20012;SDS011;10167;42.852;23.042;2023-04-03T06:10:34;2.38;;;0.60;;
20012;SDS011;10167;42.852;23.042;2023-04-03T06:13:05;0.50;;;0.50;;
20012;SDS011;10167;42.852;23.042;2023-04-03T06:15:36;0.60;;;0.60;;
20012;SDS011;10167;42.852;23.042;2023-04-03T06:18:09;0.28;;;0.28;;
20012;SDS011;10167;42.852;23.042;2023-04-03T06:20:38;0.68;;;0.68;;
20012;SDS011;10167;42.852;23.042;2023-04-03T06:23:08;2.35;;;1.08;;
20012;SDS011;10167;42.852;23.042;2023-04-03T06:25:39;2.60;;;2.10;;
20012;SDS011;10167;42.852;23.042;2023-04-03T06:28:09;0.90;;;0.90;;
20012;SDS011;10167;42.852;23.042;2023-04-03T06:30:38;1.88;;;1.55;;
20012;SDS011;10167;42.852;23.042;2023-04-03T06:33:10;4.53;;;1.80;;
20012;SDS011;10167;42.852;23.042;2023-04-03T06:35:39;4.00;;;1.43;;
20012;SDS011;10167;42.852;23.042;2023-04-03T06:38:09;3.50;;;1.85;;
20012;SDS011;10167;42.852;23.042;2023-04-03T06:40:39;2.75;;;1.70;;
20012;SDS011;10167;42.852;23.042;2023-04-03T06:43:08;0.98;;;0.88;;
20012;SDS011;10167;42.852;23.042;2023-04-03T06:45:37;0.82;;;0.82;;
20012;SDS011;10167;42.852;23.042;2023-04-03T06:48:07;1.13;;;1.05;;
20012;SDS011;10167;42.852;23.042;2023-04-03T06:50:37;2.83;;;1.38;;
20012;SDS011;10167;42.852;23.042;2023-04-03T06:53:06;0.73;;;0.73;;
20012;SDS011;10167;42.852;23.042;2023-04-03T06:55:35;0.70;;;0.70;;
20012;SDS011;10167;42.852;23.042;2023-04-03T06:58:07;0.85;;;0.85;;
20012;SDS011;10167;42.852;23.042;2023-04-03T07:00:36;0.68;;;0.68;;
20012;SDS011;10167;42.852;23.042;2023-04-03T07:03:05;0.40;;;0.40;;
20012;SDS011;10167;42.852;23.042;2023-04-03T07:05:35;3.03;;;1.48;;
20012;SDS011;10167;42.852;23.042;2023-04-03T07:08:05;0.57;;;0.55;;
20012;SDS011;10167;42.852;23.042;2023-04-03T07:10:35;0.52;;;0.52;;
20012;SDS011;10167;42.852;23.042;2023-04-03T07:13:08;5.07;;;1.20;;
20012;SDS011;10167;42.852;23.042;2023-04-03T07:15:37;2.30;;;1.90;;
20012;SDS011;10167;42.852;23.042;2023-04-03T07:18:06;1.92;;;1.80;;
20012;SDS011;10167;42.852;23.042;2023-04-03T07:20:35;4.85;;;0.55;;
20012;SDS011;10167;42.852;23.042;2023-04-03T07:23:04;0.60;;;0.55;;
20012;SDS011;10167;42.852;23.042;2023-04-03T07:25:34;0.30;;;0.30;;
20012;SDS011;10167;42.852;23.042;2023-04-03T07:28:04;0.80;;;0.80;;
20012;SDS011;10167;42.852;23.042;2023-04-03T07:30:37;0.17;;;0.17;;
20012;SDS011;10167;42.852;23.042;2023-04-03T07:33:11;0.35;;;0.35;;
20012;SDS011;10167;42.852;23.042;2023-04-03T07:35:40;1.02;;;0.75;;
20012;SDS011;10167;42.852;23.042;2023-04-03T07:38:11;0.30;;;0.30;;
20012;SDS011;10167;42.852;23.042;2023-04-03T07:40:45;0.30;;;0.30;;
20012;SDS011;10167;42.852;23.042;2023-04-03T07:43:14;0.38;;;0.38;;
20012;SDS011;10167;42.852;23.042;2023-04-03T07:45:45;0.45;;;0.45;;
20012;SDS011;10167;42.852;23.042;2023-04-03T07:50:46;1.00;;;0.75;;
20012;SDS011;10167;42.852;23.042;2023-04-03T07:53:15;0.60;;;0.60;;
20012;SDS011;10167;42.852;23.042;2023-04-03T07:55:46;0.45;;;0.28;;
20012;SDS011;10167;42.852;23.042;2023-04-03T07:58:16;1.77;;;0.35;;
20012;SDS011;10167;42.852;23.042;2023-04-03T08:00:47;0.20;;;0.20;;
20012;SDS011;10167;42.852;23.042;2023-04-03T08:03:17;0.30;;;0.30;;
20012;SDS011;10167;42.852;23.042;2023-04-03T08:05:47;0.40;;;0.40;;
20012;SDS011;10167;42.852;23.042;2023-04-03T08:08:17;0.52;;;0.52;;
20012;SDS011;10167;42.852;23.042;2023-04-03T08:10:49;0.30;;;0.30;;
20012;SDS011;10167;42.852;23.042;2023-04-03T08:13:19;0.45;;;0.30;;
20012;SDS011;10167;42.852;23.042;2023-04-03T08:15:50;0.32;;;0.32;;
20012;SDS011;10167;42.852;23.042;2023-04-03T08:18:19;0.30;;;0.30;;
20012;SDS011;10167;42.852;23.042;2023-04-03T08:20:51;0.28;;;0.28;;
20012;SDS011;10167;42.852;23.042;2023-04-03T08:23:20;0.47;;;0.47;;
20012;SDS011;10167;42.852;23.042;2023-04-03T08:25:49;0.57;;;0.57;;
20012;SDS011;10167;42.852;23.042;2023-04-03T08:28:19;2.80;;;1.42;;
20012;SDS011;10167;42.852;23.042;2023-04-03T08:30:53;0.38;;;0.38;;
20012;SDS011;10167;42.852;23.042;2023-04-03T08:33:24;0.63;;;0.63;;
20012;SDS011;10167;42.852;23.042;2023-04-03T08:35:53;0.63;;;0.63;;
20012;SDS011;10167;42.852;23.042;2023-04-03T08:38:23;1.48;;;1.02;;
20012;SDS011;10167;42.852;23.042;2023-04-03T08:40:59;0.28;;;0.28;;
20012;SDS011;10167;42.852;23.042;2023-04-03T08:43:35;0.82;;;0.82;;
20012;SDS011;10167;42.852;23.042;2023-04-03T08:46:13;0.40;;;0.40;;
20012;SDS011;10167;42.852;23.042;2023-04-03T08:48:45;0.73;;;0.73;;
20012;SDS011;10167;42.852;23.042;2023-04-03T08:51:16;0.43;;;0.43;;
20012;SDS011;10167;42.852;23.042;2023-04-03T08:53:51;0.30;;;0.30;;
20012;SDS011;10167;42.852;23.042;2023-04-03T08:56:26;0.38;;;0.38;;
20012;SDS011;10167;42.852;23.042;2023-04-03T08:58:57;0.20;;;0.20;;
20012;SDS011;10167;42.852;23.042;2023-04-03T09:01:33;0.38;;;0.38;;
20012;SDS011;10167;42.852;23.042;2023-04-03T09:04:14;0.20;;;0.20;;
20012;SDS011;10167;42.852;23.042;2023-04-03T09:06:45;0.40;;;0.40;;
20012;SDS011;10167;42.852;23.042;2023-04-03T09:09:23;0.30;;;0.30;;
20012;SDS011;10167;42.852;23.042;2023-04-03T09:12:02;0.20;;;0.20;;
20012;SDS011;10167;42.852;23.042;2023-04-03T09:14:39;0.30;;;0.30;;
20012;SDS011;10167;42.852;23.042;2023-04-03T09:17:20;0.15;;;0.15;;
20012;SDS011;10167;42.852;23.042;2023-04-03T09:19:57;0.43;;;0.43;;
20012;SDS011;10167;42.852;23.042;2023-04-03T09:22:37;0.70;;;0.70;;
20012;SDS011;10167;42.852;23.042;2023-04-03T09:25:19;0.40;;;0.40;;
20012;SDS011;10167;42.852;23.042;2023-04-03T09:27:50;0.50;;;0.50;;
20012;SDS011;10167;42.852;23.042;2023-04-03T09:30:21;0.43;;;0.30;;
20012;SDS011;10167;42.852;23.042;2023-04-03T09:32:53;0.52;;;0.52;;
20012;SDS011;10167;42.852;23.042;2023-04-03T09:35:25;0.32;;;0.32;;
20012;SDS011;10167;42.852;23.042;2023-04-03T09:38:17;0.82;;;0.32;;
20012;SDS011;10167;42.852;23.042;2023-04-03T09:40:48;0.47;;;0.47;;
20012;SDS011;10167;42.852;23.042;2023-04-03T09:43:19;0.20;;;0.20;;
20012;SDS011;10167;42.852;23.042;2023-04-03T09:45:53;0.45;;;0.45;;
20012;SDS011;10167;42.852;23.042;2023-04-03T09:48:25;0.45;;;0.45;;
20012;SDS011;10167;42.852;23.042;2023-04-03T09:50:56;1.33;;;0.55;;
20012;SDS011;10167;42.852;23.042;2023-04-03T09:53:31;0.70;;;0.70;;
20012;SDS011;10167;42.852;23.042;2023-04-03T09:56:05;0.80;;;0.70;;
20012;SDS011;10167;42.852;23.042;2023-04-03T09:58:49;0.32;;;0.32;;
20012;SDS011;10167;42.852;23.042;2023-04-03T10:01:21;0.60;;;0.60;;
20012;SDS011;10167;42.852;23.042;2023-04-03T10:06:34;1.25;;;0.77;;
20012;SDS011;10167;42.852;23.042;2023-04-03T10:09:15;2.22;;;0.82;;
20012;SDS011;10167;42.852;23.042;2023-04-03T10:12:03;0.52;;;0.52;;
20012;SDS011;10167;42.852;23.042;2023-04-03T10:14:36;0.57;;;0.57;;
20012;SDS011;10167;42.852;23.042;2023-04-03T10:17:12;0.70;;;0.70;;
20012;SDS011;10167;42.852;23.042;2023-04-03T10:19:49;3.85;;;1.35;;
20012;SDS011;10167;42.852;23.042;2023-04-03T10:22:27;0.63;;;0.50;;
20012;SDS011;10167;42.852;23.042;2023-04-03T10:25:09;1.33;;;1.23;;
20012;SDS011;10167;42.852;23.042;2023-04-03T10:27:46;0.20;;;0.20;;
20012;SDS011;10167;42.852;23.042;2023-04-03T10:30:28;0.98;;;0.77;;
20012;SDS011;10167;42.852;23.042;2023-04-03T10:33:08;0.98;;;0.98;;
20012;SDS011;10167;42.852;23.042;2023-04-03T10:35:50;3.40;;;1.33;;
20012;SDS011;10167;42.852;23.042;2023-04-03T10:38:31;4.00;;;2.90;;
20012;SDS011;10167;42.852;23.042;2023-04-03T10:41:10;0.82;;;0.82;;
20012;SDS011;10167;42.852;23.042;2023-04-03T10:43:47;0.30;;;0.30;;
20012;SDS011;10167;42.852;23.042;2023-04-03T10:46:23;0.40;;;0.40;;
20012;SDS011;10167;42.852;23.042;2023-04-03T10:49:03;1.20;;;0.57;;
20012;SDS011;10167;42.852;23.042;2023-04-03T10:51:43;0.85;;;0.60;;
20012;SDS011;10167;42.852;23.042;2023-04-03T10:54:16;1.45;;;0.88;;
20012;SDS011;10167;42.852;23.042;2023-04-03T10:56:52;0.52;;;0.52;;
20012;SDS011;10167;42.852;23.042;2023-04-03T10:59:38;1.00;;;1.00;;
20012;SDS011;10167;42.852;23.042;2023-04-03T11:02:14;1.35;;;1.25;;
20012;SDS011;10167;42.852;23.042;2023-04-03T11:04:48;5.68;;;0.77;;
20012;SDS011;10167;42.852;23.042;2023-04-03T11:07:24;1.13;;;0.98;;
20012;SDS011;10167;42.852;23.042;2023-04-03T11:09:59;0.45;;;0.45;;
20012;SDS011;10167;42.852;23.042;2023-04-03T11:12:36;1.48;;;1.02;;
20012;SDS011;10167;42.852;23.042;2023-04-03T11:15:12;1.08;;;0.93;;
20012;SDS011;10167;42.852;23.042;2023-04-03T11:17:46;0.77;;;0.70;;
20012;SDS011;10167;42.852;23.042;2023-04-03T11:20:21;2.30;;;0.77;;
20012;SDS011;10167;42.852;23.042;2023-04-03T11:22:58;0.55;;;0.45;;
20012;SDS011;10167;42.852;23.042;2023-04-03T11:25:31;0.43;;;0.43;;
20012;SDS011;10167;42.852;23.042;2023-04-03T11:28:05;0.95;;;0.95;;
20012;SDS011;10167;42.852;23.042;2023-04-03T11:30:42;0.50;;;0.50;;
20012;SDS011;10167;42.852;23.042;2023-04-03T11:36:12;0.50;;;0.50;;
20012;SDS011;10167;42.852;23.042;2023-04-03T11:39:00;0.88;;;0.68;;
20012;SDS011;10167;42.852;23.042;2023-04-03T11:41:36;0.60;;;0.60;;
20012;SDS011;10167;42.852;23.042;2023-04-03T11:44:13;3.40;;;1.48;;
20012;SDS011;10167;42.852;23.042;2023-04-03T11:46:58;4.57;;;1.77;;
20012;SDS011;10167;42.852;23.042;2023-04-03T11:53:25;1.10;;;1.10;;
20012;SDS011;10167;42.852;23.042;2023-04-03T11:56:44;0.82;;;0.75;;
20012;SDS011;10167;42.852;23.042;2023-04-03T11:59:37;1.25;;;1.13;;
20012;SDS011;10167;42.852;23.042;2023-04-03T12:02:35;1.02;;;1.02;;
20012;SDS011;10167;42.852;23.042;2023-04-03T12:05:45;1.05;;;0.95;;
20012;SDS011;10167;42.852;23.042;2023-04-03T12:08:55;0.52;;;0.52;;
20012;SDS011;10167;42.852;23.042;2023-04-03T12:11:40;0.60;;;0.60;;
20012;SDS011;10167;42.852;23.042;2023-04-03T12:25:01;3.35;;;1.77;;
20012;SDS011;10167;42.852;23.042;2023-04-03T12:28:43;2.38;;;1.25;;
20012;SDS011;10167;42.852;23.042;2023-04-03T12:31:39;0.40;;;0.40;;
20012;SDS011;10167;42.852;23.042;2023-04-03T12:44:30;0.55;;;0.55;;
20012;SDS011;10167;42.852;23.042;2023-04-03T12:47:35;0.75;;;0.45;;
20012;SDS011;10167;42.852;23.042;2023-04-03T12:50:31;2.38;;;0.43;;
20012;SDS011;10167;42.852;23.042;2023-04-03T12:53:25;0.80;;;0.75;;
20012;SDS011;10167;42.852;23.042;2023-04-03T12:56:23;0.68;;;0.52;;
20012;SDS011;10167;42.852;23.042;2023-04-03T12:59:27;0.32;;;0.32;;
20012;SDS011;10167;42.852;23.042;2023-04-03T13:02:15;0.63;;;0.63;;
20012;SDS011;10167;42.852;23.042;2023-04-03T13:05:06;0.35;;;0.35;;
20012;SDS011;10167;42.852;23.042;2023-04-03T13:08:05;1.02;;;0.93;;
20012;SDS011;10167;42.852;23.042;2023-04-03T13:10:52;0.40;;;0.32;;
20012;SDS011;10167;42.852;23.042;2023-04-03T13:13:56;0.88;;;0.88;;
20012;SDS011;10167;42.852;23.042;2023-04-03T13:17:06;2.85;;;0.65;;
20012;SDS011;10167;42.852;23.042;2023-04-03T13:19:55;0.60;;;0.38;;
20012;SDS011;10167;42.852;23.042;2023-04-03T13:22:47;0.95;;;0.65;;
20012;SDS011;10167;42.852;23.042;2023-04-03T13:25:30;1.23;;;1.15;;
20012;SDS011;10167;42.852;23.042;2023-04-03T13:28:18;1.63;;;1.20;;
20012;SDS011;10167;42.852;23.042;2023-04-03T13:31:02;0.65;;;0.65;;
20012;SDS011;10167;42.852;23.042;2023-04-03T13:33:35;1.75;;;0.85;;
20012;SDS011;10167;42.852;23.042;2023-04-03T13:36:06;0.88;;;0.70;;
20012;SDS011;10167;42.852;23.042;2023-04-03T13:38:43;1.08;;;1.05;;
20012;SDS011;10167;42.852;23.042;2023-04-03T13:41:23;1.67;;;1.15;;
20012;SDS011;10167;42.852;23.042;2023-04-03T13:43:54;0.60;;;0.60;;
20012;SDS011;10167;42.852;23.042;2023-04-03T13:46:39;1.30;;;1.15;;
20012;SDS011;10167;42.852;23.042;2023-04-03T13:49:17;0.17;;;0.17;;
20012;SDS011;10167;42.852;23.042;2023-04-03T13:51:50;1.10;;;1.00;;
20012;SDS011;10167;42.852;23.042;2023-04-03T13:54:33;0.35;;;0.35;;
20012;SDS011;10167;42.852;23.042;2023-04-03T13:57:10;0.80;;;0.80;;
20012;SDS011;10167;42.852;23.042;2023-04-03T13:59:42;2.47;;;1.27;;
20012;SDS011;10167;42.852;23.042;2023-04-03T14:02:17;0.57;;;0.57;;
20012;SDS011;10167;42.852;23.042;2023-04-03T14:04:50;0.45;;;0.45;;
20012;SDS011;10167;42.852;23.042;2023-04-03T14:07:23;1.20;;;1.10;;
20012;SDS011;10167;42.852;23.042;2023-04-03T14:09:52;0.95;;;0.95;;
20012;SDS011;10167;42.852;23.042;2023-04-03T14:12:24;0.30;;;0.30;;
20012;SDS011;10167;42.852;23.042;2023-04-03T14:14:58;0.52;;;0.52;;
20012;SDS011;10167;42.852;23.042;2023-04-03T14:17:31;0.50;;;0.50;;
20012;SDS011;10167;42.852;23.042;2023-04-03T14:20:00;0.38;;;0.35;;
20012;SDS011;10167;42.852;23.042;2023-04-03T14:22:30;0.57;;;0.57;;
20012;SDS011;10167;42.852;23.042;2023-04-03T14:25:02;0.30;;;0.30;;
20012;SDS011;10167;42.852;23.042;2023-04-03T14:27:34;2.75;;;0.88;;
20012;SDS011;10167;42.852;23.042;2023-04-03T14:30:05;0.40;;;0.40;;
20012;SDS011;10167;42.852;23.042;2023-04-03T14:32:38;0.83;;;0.80;;
20012;SDS011;10167;42.852;23.042;2023-04-03T14:35:07;0.95;;;0.95;;
20012;SDS011;10167;42.852;23.042;2023-04-03T14:37:37;2.10;;;1.90;;
20012;SDS011;10167;42.852;23.042;2023-04-03T14:40:07;0.65;;;0.65;;
20012;SDS011;10167;42.852;23.042;2023-04-03T14:42:38;0.50;;;0.50;;
20012;SDS011;10167;42.852;23.042;2023-04-03T14:45:08;0.30;;;0.30;;
20012;SDS011;10167;42.852;23.042;2023-04-03T14:47:41;0.70;;;0.70;;
20012;SDS011;10167;42.852;23.042;2023-04-03T14:50:15;0.40;;;0.40;;
20012;SDS011;10167;42.852;23.042;2023-04-03T14:52:45;0.25;;;0.25;;
20012;SDS011;10167;42.852;23.042;2023-04-03T14:55:15;0.55;;;0.55;;
20012;SDS011;10167;42.852;23.042;2023-04-03T14:57:46;0.38;;;0.35;;
20012;SDS011;10167;42.852;23.042;2023-04-03T15:00:16;1.42;;;1.33;;
20012;SDS011;10167;42.852;23.042;2023-04-03T15:02:49;0.60;;;0.60;;
20012;SDS011;10167;42.852;23.042;2023-04-03T15:05:18;2.20;;;1.35;;
20012;SDS011;10167;42.852;23.042;2023-04-03T15:07:48;0.30;;;0.30;;
20012;SDS011;10167;42.852;23.042;2023-04-03T15:10:21;1.08;;;0.95;;
20012;SDS011;10167;42.852;23.042;2023-04-03T15:12:52;1.15;;;1.05;;
20012;SDS011;10167;42.852;23.042;2023-04-03T15:17:58;1.45;;;1.35;;
20012;SDS011;10167;42.852;23.042;2023-04-03T15:20:28;0.17;;;0.17;;
20012;SDS011;10167;42.852;23.042;2023-04-03T15:23:00;0.97;;;0.63;;
20012;SDS011;10167;42.852;23.042;2023-04-03T15:25:31;2.08;;;1.40;;
20012;SDS011;10167;42.852;23.042;2023-04-03T15:28:01;0.70;;;0.70;;
20012;SDS011;10167;42.852;23.042;2023-04-03T15:30:31;2.13;;;1.15;;
20012;SDS011;10167;42.852;23.042;2023-04-03T15:33:08;1.00;;;0.90;;
20012;SDS011;10167;42.852;23.042;2023-04-03T15:35:37;0.43;;;0.43;;
20012;SDS011;10167;42.852;23.042;2023-04-03T15:38:07;1.10;;;0.73;;
20012;SDS011;10167;42.852;23.042;2023-04-03T15:40:37;5.82;;;1.95;;
20012;SDS011;10167;42.852;23.042;2023-04-03T15:43:07;1.50;;;1.05;;
20012;SDS011;10167;42.852;23.042;2023-04-03T15:45:37;1.60;;;1.40;;
20012;SDS011;10167;42.852;23.042;2023-04-03T15:48:08;2.55;;;1.05;;